sensor_id;sensor_type;location;lat;lon;timestamp;pressure;altitude;pressure_sealevel;temperature;humidity
62458;BME280;48509;52.122;5.250;2023-05-16T00:00:49;101933.0;;;10.76;93.25
62458;BME280;48509;52.122;5.250;2023-05-16T00:02:25;101940.0;;;10.65;94.57
62458;BME280;48509;52.122;5.250;2023-05-16T00:05:37;101941.0;;;10.68;93.4
62458;BME280;48509;52.122;5.250;2023-05-16T00:07:13;101934.0;;;10.56;94.97
62458;BME280;48509;52.122;5.250;2023-05-16T00:08:49;101939.0;;;10.63;93.06
62458;BME280;48509;52.122;5.250;2023-05-16T00:10:26;101938.0;;;10.71;93.45
62458;BME280;48509;52.122;5.250;2023-05-16T00:13:38;101937.0;;;10.62;93.16
62458;BME280;48509;52.122;5.250;2023-05-16T00:15:14;101938.0;;;10.53;93.73
62458;BME280;48509;52.122;5.250;2023-05-16T00:16:50;101944.0;;;10.5;93.38
62458;BME280;48509;52.122;5.250;2023-05-16T00:20:03;101944.0;;;10.56;93.65
62458;BME280;48509;52.122;5.250;2023-05-16T00:21:40;101945.0;;;10.6;93.63
62458;BME280;48509;52.122;5.250;2023-05-16T00:23:16;101943.0;;;10.63;92.89
62458;BME280;48509;52.122;5.250;2023-05-16T00:28:05;101946.0;;;10.4;92.69
62458;BME280;48509;52.122;5.250;2023-05-16T00:29:40;101943.0;;;10.49;92.68
62458;BME280;48509;52.122;5.250;2023-05-16T00:31:17;101948.0;;;10.41;92.45
62458;BME280;48509;52.122;5.250;2023-05-16T00:34:29;101945.0;;;10.46;92.11
62458;BME280;48509;52.122;5.250;2023-05-16T00:36:06;101946.0;;;10.35;92.46
62458;BME280;48509;52.122;5.250;2023-05-16T00:37:42;101948.0;;;10.34;92.0
62458;BME280;48509;52.122;5.250;2023-05-16T00:40:55;101945.0;;;10.38;92.7
62458;BME280;48509;52.122;5.250;2023-05-16T00:42:31;101951.0;;;10.35;92.5
62458;BME280;48509;52.122;5.250;2023-05-16T00:44:07;101953.0;;;10.17;93.05
62458;BME280;48509;52.122;5.250;2023-05-16T00:47:20;101948.0;;;10.14;93.53
62458;BME280;48509;52.122;5.250;2023-05-16T00:48:56;101948.0;;;10.13;94.14
62458;BME280;48509;52.122;5.250;2023-05-16T00:50:33;101952.0;;;10.18;93.56
62458;BME280;48509;52.122;5.250;2023-05-16T00:53:45;101952.0;;;10.06;94.84
62458;BME280;48509;52.122;5.250;2023-05-16T00:55:22;101952.0;;;9.99;94.59
62458;BME280;48509;52.122;5.250;2023-05-16T00:56:58;101950.0;;;9.98;94.63
62458;BME280;48509;52.122;5.250;2023-05-16T00:58:34;101951.0;;;9.99;94.83
62458;BME280;48509;52.122;5.250;2023-05-16T01:01:49;101955.0;;;10.14;94.56
62458;BME280;48509;52.122;5.250;2023-05-16T01:03:26;101953.0;;;10.08;95.23
62458;BME280;48509;52.122;5.250;2023-05-16T01:05:03;101949.0;;;10.03;95.36
62458;BME280;48509;52.122;5.250;2023-05-16T01:08:16;101949.0;;;9.99;95.27
62458;BME280;48509;52.122;5.250;2023-05-16T01:09:52;101952.0;;;10.13;94.48
62458;BME280;48509;52.122;5.250;2023-05-16T01:13:17;101948.0;;;10.1;94.25
62458;BME280;48509;52.122;5.250;2023-05-16T01:16:45;101950.0;;;10.01;96.14
62458;BME280;48509;52.122;5.250;2023-05-16T01:18:30;101950.0;;;9.81;96.66
62458;BME280;48509;52.122;5.250;2023-05-16T01:20:27;101948.0;;;9.91;96.22
62458;BME280;48509;52.122;5.250;2023-05-16T01:22:10;101949.0;;;9.89;95.75
62458;BME280;48509;52.122;5.250;2023-05-16T01:23:51;101951.0;;;9.89;96.56
62458;BME280;48509;52.122;5.250;2023-05-16T01:27:20;101956.0;;;9.88;95.04
62458;BME280;48509;52.122;5.250;2023-05-16T01:28:58;101955.0;;;9.81;95.53
62458;BME280;48509;52.122;5.250;2023-05-16T01:30:38;101959.0;;;9.75;95.14
62458;BME280;48509;52.122;5.250;2023-05-16T01:32:15;101958.0;;;9.81;95.45
62458;BME280;48509;52.122;5.250;2023-05-16T01:35:28;101959.0;;;9.77;94.73
62458;BME280;48509;52.122;5.250;2023-05-16T01:37:11;101957.0;;;9.84;95.26
62458;BME280;48509;52.122;5.250;2023-05-16T01:38:58;101960.0;;;9.89;95.76
62458;BME280;48509;52.122;5.250;2023-05-16T01:40:46;101956.0;;;9.8;95.02
62458;BME280;48509;52.122;5.250;2023-05-16T01:42:30;101953.0;;;9.83;94.66
62458;BME280;48509;52.122;5.250;2023-05-16T01:46:03;101951.0;;;9.81;96.22
62458;BME280;48509;52.122;5.250;2023-05-16T01:47:48;101956.0;;;9.84;95.27
62458;BME280;48509;52.122;5.250;2023-05-16T01:49:40;101960.0;;;9.8;95.36
62458;BME280;48509;52.122;5.250;2023-05-16T01:51:20;101960.0;;;9.78;96.79
62458;BME280;48509;52.122;5.250;2023-05-16T01:52:59;101962.0;;;9.67;97.84
62458;BME280;48509;52.122;5.250;2023-05-16T01:56:20;101962.0;;;9.75;96.47
62458;BME280;48509;52.122;5.250;2023-05-16T01:57:58;101965.0;;;9.78;96.92
62458;BME280;48509;52.122;5.250;2023-05-16T01:59:35;101966.0;;;9.77;96.74
62458;BME280;48509;52.122;5.250;2023-05-16T02:02:49;101966.0;;;9.59;97.59
62458;BME280;48509;52.122;5.250;2023-05-16T02:04:25;101970.0;;;9.67;97.0
62458;BME280;48509;52.122;5.250;2023-05-16T02:06:01;101973.0;;;9.64;96.51
62458;BME280;48509;52.122;5.250;2023-05-16T02:07:38;101972.0;;;9.64;97.54
62458;BME280;48509;52.122;5.250;2023-05-16T02:10:50;101976.0;;;9.57;98.26
62458;BME280;48509;52.122;5.250;2023-05-16T02:12:26;101976.0;;;9.61;97.63
62458;BME280;48509;52.122;5.250;2023-05-16T02:14:02;101980.0;;;9.61;97.75
62458;BME280;48509;52.122;5.250;2023-05-16T02:17:15;101980.0;;;9.63;97.34
62458;BME280;48509;52.122;5.250;2023-05-16T02:18:51;101981.0;;;9.53;97.5
62458;BME280;48509;52.122;5.250;2023-05-16T02:20:27;101983.0;;;9.5;97.07
62458;BME280;48509;52.122;5.250;2023-05-16T02:23:39;101987.0;;;9.56;97.87
62458;BME280;48509;52.122;5.250;2023-05-16T02:25:15;101988.0;;;9.5;98.28
62458;BME280;48509;52.122;5.250;2023-05-16T02:26:52;101991.0;;;9.48;98.31
62458;BME280;48509;52.122;5.250;2023-05-16T02:28:28;101991.0;;;9.48;98.08
62458;BME280;48509;52.122;5.250;2023-05-16T02:31:41;101988.0;;;9.52;98.07
62458;BME280;48509;52.122;5.250;2023-05-16T02:33:17;101993.0;;;9.5;98.72
62458;BME280;48509;52.122;5.250;2023-05-16T02:34:53;101995.0;;;9.35;99.32
62458;BME280;48509;52.122;5.250;2023-05-16T02:38:06;101993.0;;;9.39;98.75
62458;BME280;48509;52.122;5.250;2023-05-16T02:39:43;101991.0;;;9.21;99.42
62458;BME280;48509;52.122;5.250;2023-05-16T02:41:19;101992.0;;;9.3;99.32
62458;BME280;48509;52.122;5.250;2023-05-16T02:44:31;101996.0;;;9.26;98.87
62458;BME280;48509;52.122;5.250;2023-05-16T02:46:19;101994.0;;;9.21;98.59
62458;BME280;48509;52.122;5.250;2023-05-16T02:47:56;101995.0;;;9.25;99.33
62458;BME280;48509;52.122;5.250;2023-05-16T02:49:32;101999.0;;;9.11;99.72
62458;BME280;48509;52.122;5.250;2023-05-16T02:52:44;101994.0;;;9.16;99.67
62458;BME280;48509;52.122;5.250;2023-05-16T02:54:20;101995.0;;;9.14;99.97
62458;BME280;48509;52.122;5.250;2023-05-16T02:55:56;102000.0;;;9.06;100.0
62458;BME280;48509;52.122;5.250;2023-05-16T02:59:09;102001.0;;;8.99;100.0
62458;BME280;48509;52.122;5.250;2023-05-16T03:00:46;102001.0;;;8.98;100.0
62458;BME280;48509;52.122;5.250;2023-05-16T03:02:22;102000.0;;;8.91;100.0
62458;BME280;48509;52.122;5.250;2023-05-16T03:05:34;102001.0;;;8.85;100.0
62458;BME280;48509;52.122;5.250;2023-05-16T03:07:11;102006.0;;;8.83;100.0
62458;BME280;48509;52.122;5.250;2023-05-16T03:08:47;102013.0;;;8.75;100.0
62458;BME280;48509;52.122;5.250;2023-05-16T03:10:23;102009.0;;;8.86;100.0
62458;BME280;48509;52.122;5.250;2023-05-16T03:13:35;102010.0;;;8.76;100.0
62458;BME280;48509;52.122;5.250;2023-05-16T03:15:11;102008.0;;;8.74;100.0
62458;BME280;48509;52.122;5.250;2023-05-16T03:16:48;102008.0;;;8.73;100.0
62458;BME280;48509;52.122;5.250;2023-05-16T03:19:59;102012.0;;;8.66;100.0
62458;BME280;48509;52.122;5.250;2023-05-16T03:21:35;102014.0;;;8.57;100.0
62458;BME280;48509;52.122;5.250;2023-05-16T03:23:11;102018.0;;;8.5;100.0
62458;BME280;48509;52.122;5.250;2023-05-16T03:26:24;102023.0;;;8.42;100.0
62458;BME280;48509;52.122;5.250;2023-05-16T03:28:00;102024.0;;;8.36;100.0
62458;BME280;48509;52.122;5.250;2023-05-16T03:29:36;102020.0;;;8.28;100.0
62458;BME280;48509;52.122;5.250;2023-05-16T03:31:12;102024.0;;;8.22;100.0
62458;BME280;48509;52.122;5.250;2023-05-16T03:34:24;102026.0;;;8.23;100.0
62458;BME280;48509;52.122;5.250;2023-05-16T03:36:01;102021.0;;;8.14;100.0
62458;BME280;48509;52.122;5.250;2023-05-16T03:37:37;102026.0;;;8.15;100.0
62458;BME280;48509;52.122;5.250;2023-05-16T03:40:49;102030.0;;;8.17;100.0
62458;BME280;48509;52.122;5.250;2023-05-16T03:42:25;102035.0;;;8.11;100.0
62458;BME280;48509;52.122;5.250;2023-05-16T03:44:01;102038.0;;;8.13;100.0
62458;BME280;48509;52.122;5.250;2023-05-16T03:47:14;102039.0;;;8.08;100.0
62458;BME280;48509;52.122;5.250;2023-05-16T03:48:50;102037.0;;;8.07;100.0
62458;BME280;48509;52.122;5.250;2023-05-16T03:50:26;102039.0;;;8.05;100.0
62458;BME280;48509;52.122;5.250;2023-05-16T03:53:38;102041.0;;;8.05;100.0
62458;BME280;48509;52.122;5.250;2023-05-16T03:55:15;102040.0;;;8.13;100.0
62458;BME280;48509;52.122;5.250;2023-05-16T03:56:51;102036.0;;;8.1;100.0
62458;BME280;48509;52.122;5.250;2023-05-16T03:58:27;102039.0;;;8.07;100.0
62458;BME280;48509;52.122;5.250;2023-05-16T04:01:42;102041.0;;;8.22;100.0
62458;BME280;48509;52.122;5.250;2023-05-16T04:03:18;102039.0;;;8.06;100.0
62458;BME280;48509;52.122;5.250;2023-05-16T04:04:54;102039.0;;;8.14;100.0
62458;BME280;48509;52.122;5.250;2023-05-16T04:08:07;102040.0;;;8.11;100.0
62458;BME280;48509;52.122;5.250;2023-05-16T04:09:43;102044.0;;;8.15;100.0
62458;BME280;48509;52.122;5.250;2023-05-16T04:11:19;102047.0;;;7.98;100.0
62458;BME280;48509;52.122;5.250;2023-05-16T04:14:33;102047.0;;;7.97;100.0
62458;BME280;48509;52.122;5.250;2023-05-16T04:16:10;102049.0;;;7.95;100.0
62458;BME280;48509;52.122;5.250;2023-05-16T04:17:46;102045.0;;;8.0;100.0
62458;BME280;48509;52.122;5.250;2023-05-16T04:19:22;102049.0;;;7.95;100.0
62458;BME280;48509;52.122;5.250;2023-05-16T04:22:34;102047.0;;;7.94;100.0
62458;BME280;48509;52.122;5.250;2023-05-16T04:24:10;102048.0;;;8.01;100.0
62458;BME280;48509;52.122;5.250;2023-05-16T04:25:47;102051.0;;;8.05;100.0
62458;BME280;48509;52.122;5.250;2023-05-16T04:28:59;102057.0;;;7.94;100.0
62458;BME280;48509;52.122;5.250;2023-05-16T04:30:35;102057.0;;;8.0;100.0
62458;BME280;48509;52.122;5.250;2023-05-16T04:32:11;102058.0;;;7.95;100.0
62458;BME280;48509;52.122;5.250;2023-05-16T04:35:24;102057.0;;;8.03;100.0
62458;BME280;48509;52.122;5.250;2023-05-16T04:37:02;102063.0;;;8.09;100.0
62458;BME280;48509;52.122;5.250;2023-05-16T04:38:38;102062.0;;;8.08;100.0
62458;BME280;48509;52.122;5.250;2023-05-16T04:40:14;102067.0;;;8.13;100.0
62458;BME280;48509;52.122;5.250;2023-05-16T04:43:27;102072.0;;;8.14;100.0
62458;BME280;48509;52.122;5.250;2023-05-16T04:45:03;102077.0;;;8.15;100.0
62458;BME280;48509;52.122;5.250;2023-05-16T04:46:40;102070.0;;;8.23;100.0
62458;BME280;48509;52.122;5.250;2023-05-16T04:49:52;102078.0;;;8.34;100.0
62458;BME280;48509;52.122;5.250;2023-05-16T04:51:28;102077.0;;;8.4;100.0
62458;BME280;48509;52.122;5.250;2023-05-16T04:53:04;102081.0;;;8.41;100.0
62458;BME280;48509;52.122;5.250;2023-05-16T04:56:17;102080.0;;;8.47;100.0
62458;BME280;48509;52.122;5.250;2023-05-16T04:57:53;102082.0;;;8.61;100.0
62458;BME280;48509;52.122;5.250;2023-05-16T04:59:29;102083.0;;;8.59;100.0
62458;BME280;48509;52.122;5.250;2023-05-16T05:02:42;102081.0;;;8.63;100.0
62458;BME280;48509;52.122;5.250;2023-05-16T05:04:18;102083.0;;;8.78;100.0
62458;BME280;48509;52.122;5.250;2023-05-16T05:05:54;102086.0;;;8.78;100.0
62458;BME280;48509;52.122;5.250;2023-05-16T05:07:30;102088.0;;;8.9;100.0
62458;BME280;48509;52.122;5.250;2023-05-16T05:10:43;102090.0;;;9.02;100.0
62458;BME280;48509;52.122;5.250;2023-05-16T05:12:19;102093.0;;;8.97;100.0
62458;BME280;48509;52.122;5.250;2023-05-16T05:13:56;102088.0;;;9.13;100.0
62458;BME280;48509;52.122;5.250;2023-05-16T05:17:08;102088.0;;;9.11;100.0
62458;BME280;48509;52.122;5.250;2023-05-16T05:18:44;102084.0;;;9.18;100.0
62458;BME280;48509;52.122;5.250;2023-05-16T05:20:20;102082.0;;;9.31;100.0
62458;BME280;48509;52.122;5.250;2023-05-16T05:23:33;102086.0;;;9.32;100.0
62458;BME280;48509;52.122;5.250;2023-05-16T05:25:09;102080.0;;;9.42;100.0
62458;BME280;48509;52.122;5.250;2023-05-16T05:28:21;102086.0;;;9.58;100.0
62458;BME280;48509;52.122;5.250;2023-05-16T05:31:33;102086.0;;;9.6;100.0
62458;BME280;48509;52.122;5.250;2023-05-16T05:33:09;102089.0;;;9.75;98.85
62458;BME280;48509;52.122;5.250;2023-05-16T05:34:46;102094.0;;;9.83;98.65
62458;BME280;48509;52.122;5.250;2023-05-16T05:37:58;102095.0;;;9.81;99.95
62458;BME280;48509;52.122;5.250;2023-05-16T05:39:35;102097.0;;;9.89;98.62
62458;BME280;48509;52.122;5.250;2023-05-16T05:41:12;102099.0;;;10.08;97.37
62458;BME280;48509;52.122;5.250;2023-05-16T05:44:24;102102.0;;;10.13;97.79
62458;BME280;48509;52.122;5.250;2023-05-16T05:46:00;102105.0;;;10.35;96.11
62458;BME280;48509;52.122;5.250;2023-05-16T05:47:36;102107.0;;;10.33;94.85
62458;BME280;48509;52.122;5.250;2023-05-16T05:50:49;102106.0;;;10.44;93.61
62458;BME280;48509;52.122;5.250;2023-05-16T05:52:25;102103.0;;;10.43;94.02
62458;BME280;48509;52.122;5.250;2023-05-16T05:54:01;102101.0;;;10.62;93.89
62458;BME280;48509;52.122;5.250;2023-05-16T05:55:38;102105.0;;;10.64;93.84
62458;BME280;48509;52.122;5.250;2023-05-16T05:58:50;102103.0;;;10.73;92.4
62458;BME280;48509;52.122;5.250;2023-05-16T06:00:27;102102.0;;;10.74;92.92
62458;BME280;48509;52.122;5.250;2023-05-16T06:02:03;102105.0;;;10.85;93.64
62458;BME280;48509;52.122;5.250;2023-05-16T06:05:15;102108.0;;;10.88;90.09
62458;BME280;48509;52.122;5.250;2023-05-16T06:06:51;102109.0;;;10.97;90.65
62458;BME280;48509;52.122;5.250;2023-05-16T06:08:27;102113.0;;;11.07;89.74
62458;BME280;48509;52.122;5.250;2023-05-16T06:11:41;102114.0;;;11.23;89.91
62458;BME280;48509;52.122;5.250;2023-05-16T06:13:17;102121.0;;;11.16;88.23
62458;BME280;48509;52.122;5.250;2023-05-16T06:14:53;102121.0;;;11.1;90.13
62458;BME280;48509;52.122;5.250;2023-05-16T06:16:30;102118.0;;;11.09;89.53
62458;BME280;48509;52.122;5.250;2023-05-16T06:19:42;102124.0;;;11.15;90.29
62458;BME280;48509;52.122;5.250;2023-05-16T06:21:18;102125.0;;;11.18;88.59
62458;BME280;48509;52.122;5.250;2023-05-16T06:22:54;102128.0;;;11.32;87.34
62458;BME280;48509;52.122;5.250;2023-05-16T06:26:06;102130.0;;;11.36;87.53
62458;BME280;48509;52.122;5.250;2023-05-16T06:27:43;102127.0;;;11.52;87.17
62458;BME280;48509;52.122;5.250;2023-05-16T06:29:19;102131.0;;;11.64;88.15
62458;BME280;48509;52.122;5.250;2023-05-16T06:32:31;102125.0;;;11.72;87.31
62458;BME280;48509;52.122;5.250;2023-05-16T06:34:07;102127.0;;;11.93;85.32
62458;BME280;48509;52.122;5.250;2023-05-16T06:35:43;102125.0;;;12.05;86.66
62458;BME280;48509;52.122;5.250;2023-05-16T06:38:57;102134.0;;;12.17;84.44
62458;BME280;48509;52.122;5.250;2023-05-16T06:40:33;102128.0;;;12.29;82.31
62458;BME280;48509;52.122;5.250;2023-05-16T06:42:09;102133.0;;;12.45;80.38
62458;BME280;48509;52.122;5.250;2023-05-16T06:43:45;102136.0;;;12.22;79.94
62458;BME280;48509;52.122;5.250;2023-05-16T06:46:58;102131.0;;;12.24;80.83
62458;BME280;48509;52.122;5.250;2023-05-16T06:48:34;102128.0;;;12.32;80.49
62458;BME280;48509;52.122;5.250;2023-05-16T06:50:10;102134.0;;;12.31;78.36
62458;BME280;48509;52.122;5.250;2023-05-16T06:53:22;102136.0;;;12.31;77.61
62458;BME280;48509;52.122;5.250;2023-05-16T06:54:58;102135.0;;;12.35;77.08
62458;BME280;48509;52.122;5.250;2023-05-16T06:56:35;102133.0;;;12.4;76.06
62458;BME280;48509;52.122;5.250;2023-05-16T06:59:47;102141.0;;;12.5;76.37
62458;BME280;48509;52.122;5.250;2023-05-16T07:01:23;102142.0;;;12.55;75.62
62458;BME280;48509;52.122;5.250;2023-05-16T07:02:59;102136.0;;;12.49;75.58
62458;BME280;48509;52.122;5.250;2023-05-16T07:06:11;102138.0;;;12.4;76.55
62458;BME280;48509;52.122;5.250;2023-05-16T07:07:47;102136.0;;;12.38;76.22
62458;BME280;48509;52.122;5.250;2023-05-16T07:09:23;102138.0;;;12.35;76.84
62458;BME280;48509;52.122;5.250;2023-05-16T07:10:59;102142.0;;;12.44;78.55
62458;BME280;48509;52.122;5.250;2023-05-16T07:14:12;102147.0;;;12.29;75.27
62458;BME280;48509;52.122;5.250;2023-05-16T07:15:48;102143.0;;;12.37;77.62
62458;BME280;48509;52.122;5.250;2023-05-16T07:17:24;102143.0;;;12.24;77.16
62458;BME280;48509;52.122;5.250;2023-05-16T07:20:36;102144.0;;;12.33;78.74
62458;BME280;48509;52.122;5.250;2023-05-16T07:22:13;102140.0;;;12.3;76.16
62458;BME280;48509;52.122;5.250;2023-05-16T07:23:49;102140.0;;;12.43;75.75
62458;BME280;48509;52.122;5.250;2023-05-16T07:27:01;102152.0;;;12.63;80.41
62458;BME280;48509;52.122;5.250;2023-05-16T07:28:37;102144.0;;;12.69;76.36
62458;BME280;48509;52.122;5.250;2023-05-16T07:30:14;102148.0;;;12.84;77.62
62458;BME280;48509;52.122;5.250;2023-05-16T07:31:50;102148.0;;;12.83;74.33
62458;BME280;48509;52.122;5.250;2023-05-16T07:35:02;102142.0;;;13.05;74.52
62458;BME280;48509;52.122;5.250;2023-05-16T07:36:39;102149.0;;;13.12;71.94
62458;BME280;48509;52.122;5.250;2023-05-16T07:38:16;102148.0;;;13.1;71.95
62458;BME280;48509;52.122;5.250;2023-05-16T07:41:29;102153.0;;;13.1;73.55
62458;BME280;48509;52.122;5.250;2023-05-16T07:43:06;102149.0;;;13.15;74.31
62458;BME280;48509;52.122;5.250;2023-05-16T07:44:42;102151.0;;;13.21;73.56
62458;BME280;48509;52.122;5.250;2023-05-16T07:47:54;102153.0;;;13.28;74.44
62458;BME280;48509;52.122;5.250;2023-05-16T07:49:30;102144.0;;;13.32;72.95
62458;BME280;48509;52.122;5.250;2023-05-16T07:51:07;102151.0;;;13.44;72.91
62458;BME280;48509;52.122;5.250;2023-05-16T07:52:43;102144.0;;;13.49;74.0
62458;BME280;48509;52.122;5.250;2023-05-16T07:55:55;102149.0;;;13.52;72.38
62458;BME280;48509;52.122;5.250;2023-05-16T07:57:31;102145.0;;;13.59;73.67
62458;BME280;48509;52.122;5.250;2023-05-16T07:59:08;102153.0;;;13.57;72.94
62458;BME280;48509;52.122;5.250;2023-05-16T08:02:20;102146.0;;;13.57;70.59
62458;BME280;48509;52.122;5.250;2023-05-16T08:03:57;102146.0;;;13.69;69.87
62458;BME280;48509;52.122;5.250;2023-05-16T08:05:33;102155.0;;;13.76;64.73
62458;BME280;48509;52.122;5.250;2023-05-16T08:08:46;102155.0;;;13.61;63.75
62458;BME280;48509;52.122;5.250;2023-05-16T08:10:22;102151.0;;;13.57;65.69
62458;BME280;48509;52.122;5.250;2023-05-16T08:11:58;102157.0;;;13.43;64.42
62458;BME280;48509;52.122;5.250;2023-05-16T08:15:10;102161.0;;;13.43;64.62
62458;BME280;48509;52.122;5.250;2023-05-16T08:16:46;102155.0;;;13.51;66.58
62458;BME280;48509;52.122;5.250;2023-05-16T08:18:22;102158.0;;;13.48;66.08
62458;BME280;48509;52.122;5.250;2023-05-16T08:19:59;102150.0;;;13.64;65.12
62458;BME280;48509;52.122;5.250;2023-05-16T08:23:11;102159.0;;;13.87;66.84
62458;BME280;48509;52.122;5.250;2023-05-16T08:24:49;102156.0;;;13.89;65.6
62458;BME280;48509;52.122;5.250;2023-05-16T08:26:25;102155.0;;;13.96;65.58
62458;BME280;48509;52.122;5.250;2023-05-16T08:29:38;102150.0;;;13.95;63.26
62458;BME280;48509;52.122;5.250;2023-05-16T08:31:14;102152.0;;;14.02;64.88
62458;BME280;48509;52.122;5.250;2023-05-16T08:32:50;102144.0;;;14.07;65.24
62458;BME280;48509;52.122;5.250;2023-05-16T08:36:05;102145.0;;;14.36;65.55
62458;BME280;48509;52.122;5.250;2023-05-16T08:37:43;102145.0;;;14.36;66.7
62458;BME280;48509;52.122;5.250;2023-05-16T08:39:19;102153.0;;;14.53;65.53
62458;BME280;48509;52.122;5.250;2023-05-16T08:40:55;102144.0;;;14.65;64.33
62458;BME280;48509;52.122;5.250;2023-05-16T08:44:08;102144.0;;;14.58;66.24
62458;BME280;48509;52.122;5.250;2023-05-16T08:45:44;102148.0;;;14.69;63.07
62458;BME280;48509;52.122;5.250;2023-05-16T08:47:22;102146.0;;;14.44;61.48
62458;BME280;48509;52.122;5.250;2023-05-16T08:50:39;102148.0;;;14.42;62.87
62458;BME280;48509;52.122;5.250;2023-05-16T08:52:17;102148.0;;;14.55;64.02
62458;BME280;48509;52.122;5.250;2023-05-16T08:53:59;102151.0;;;14.68;64.33
62458;BME280;48509;52.122;5.250;2023-05-16T08:55:39;102160.0;;;14.68;62.1
62458;BME280;48509;52.122;5.250;2023-05-16T08:58:53;102155.0;;;14.46;62.04
62458;BME280;48509;52.122;5.250;2023-05-16T09:00:30;102155.0;;;14.55;62.77
62458;BME280;48509;52.122;5.250;2023-05-16T09:02:07;102149.0;;;14.59;62.2
62458;BME280;48509;52.122;5.250;2023-05-16T09:05:22;102152.0;;;14.74;61.85
62458;BME280;48509;52.122;5.250;2023-05-16T09:06:58;102158.0;;;14.55;60.6
62458;BME280;48509;52.122;5.250;2023-05-16T09:08:34;102161.0;;;14.58;61.91
62458;BME280;48509;52.122;5.250;2023-05-16T09:10:11;102155.0;;;14.64;61.59
62458;BME280;48509;52.122;5.250;2023-05-16T09:13:24;102160.0;;;14.54;64.05
62458;BME280;48509;52.122;5.250;2023-05-16T09:15:01;102160.0;;;14.61;63.0
62458;BME280;48509;52.122;5.250;2023-05-16T09:16:39;102164.0;;;14.47;64.8
62458;BME280;48509;52.122;5.250;2023-05-16T09:19:51;102160.0;;;14.55;66.69
62458;BME280;48509;52.122;5.250;2023-05-16T09:21:29;102170.0;;;14.56;63.11
62458;BME280;48509;52.122;5.250;2023-05-16T09:23:05;102167.0;;;14.67;64.48
62458;BME280;48509;52.122;5.250;2023-05-16T09:26:20;102172.0;;;14.78;63.45
62458;BME280;48509;52.122;5.250;2023-05-16T09:27:58;102157.0;;;14.82;60.07
62458;BME280;48509;52.122;5.250;2023-05-16T09:29:35;102160.0;;;14.9;59.09
62458;BME280;48509;52.122;5.250;2023-05-16T09:31:19;102156.0;;;15.05;62.31
62458;BME280;48509;52.122;5.250;2023-05-16T09:34:37;102171.0;;;15.19;61.44
62458;BME280;48509;52.122;5.250;2023-05-16T09:36:14;102164.0;;;15.14;58.85
62458;BME280;48509;52.122;5.250;2023-05-16T09:37:50;102160.0;;;14.98;58.27
62458;BME280;48509;52.122;5.250;2023-05-16T09:39:26;102166.0;;;14.65;58.54
62458;BME280;48509;52.122;5.250;2023-05-16T09:42:39;102165.0;;;14.91;59.39
62458;BME280;48509;52.122;5.250;2023-05-16T09:44:16;102166.0;;;15.03;64.92
62458;BME280;48509;52.122;5.250;2023-05-16T09:45:53;102158.0;;;15.17;59.94
62458;BME280;48509;52.122;5.250;2023-05-16T09:49:05;102165.0;;;15.23;60.38
62458;BME280;48509;52.122;5.250;2023-05-16T09:50:46;102167.0;;;15.42;58.85
62458;BME280;48509;52.122;5.250;2023-05-16T09:52:25;102173.0;;;15.34;57.84
62458;BME280;48509;52.122;5.250;2023-05-16T09:54:06;102164.0;;;15.15;56.65
62458;BME280;48509;52.122;5.250;2023-05-16T09:57:18;102173.0;;;15.25;58.5
62458;BME280;48509;52.122;5.250;2023-05-16T09:58:54;102174.0;;;14.91;60.25
62458;BME280;48509;52.122;5.250;2023-05-16T10:00:31;102173.0;;;14.76;64.27
62458;BME280;48509;52.122;5.250;2023-05-16T10:03:46;102174.0;;;14.55;59.01
62458;BME280;48509;52.122;5.250;2023-05-16T10:05:22;102170.0;;;14.52;61.78
62458;BME280;48509;52.122;5.250;2023-05-16T10:07:01;102169.0;;;14.68;63.13
62458;BME280;48509;52.122;5.250;2023-05-16T10:10:17;102173.0;;;14.74;62.25
62458;BME280;48509;52.122;5.250;2023-05-16T10:11:55;102172.0;;;14.93;61.26
62458;BME280;48509;52.122;5.250;2023-05-16T10:13:33;102175.0;;;14.92;61.23
62458;BME280;48509;52.122;5.250;2023-05-16T10:15:10;102174.0;;;14.87;59.86
62458;BME280;48509;52.122;5.250;2023-05-16T10:18:28;102172.0;;;15.0;58.26
62458;BME280;48509;52.122;5.250;2023-05-16T10:20:09;102173.0;;;14.95;59.1
62458;BME280;48509;52.122;5.250;2023-05-16T10:21:50;102170.0;;;14.84;59.75
62458;BME280;48509;52.122;5.250;2023-05-16T10:23:28;102175.0;;;14.94;59.27
62458;BME280;48509;52.122;5.250;2023-05-16T10:26:50;102181.0;;;14.92;57.23
62458;BME280;48509;52.122;5.250;2023-05-16T10:28:28;102172.0;;;15.0;58.48
62458;BME280;48509;52.122;5.250;2023-05-16T10:30:05;102174.0;;;14.97;59.08
62458;BME280;48509;52.122;5.250;2023-05-16T10:31:43;102175.0;;;14.98;62.25
62458;BME280;48509;52.122;5.250;2023-05-16T10:34:55;102167.0;;;15.13;65.06
62458;BME280;48509;52.122;5.250;2023-05-16T10:36:31;102167.0;;;15.34;63.59
62458;BME280;48509;52.122;5.250;2023-05-16T10:38:08;102160.0;;;15.5;59.19
62458;BME280;48509;52.122;5.250;2023-05-16T10:41:23;102170.0;;;15.6;57.56
62458;BME280;48509;52.122;5.250;2023-05-16T10:43:01;102163.0;;;15.46;57.52
62458;BME280;48509;52.122;5.250;2023-05-16T10:44:38;102173.0;;;15.46;57.24
62458;BME280;48509;52.122;5.250;2023-05-16T10:47:52;102167.0;;;15.34;55.53
62458;BME280;48509;52.122;5.250;2023-05-16T10:49:29;102163.0;;;15.26;54.81
62458;BME280;48509;52.122;5.250;2023-05-16T10:51:34;102168.0;;;15.34;54.86
62458;BME280;48509;52.122;5.250;2023-05-16T10:53:19;102169.0;;;15.35;55.18
62458;BME280;48509;52.122;5.250;2023-05-16T10:55:01;102169.0;;;15.42;56.64
62458;BME280;48509;52.122;5.250;2023-05-16T10:58:21;102173.0;;;15.29;56.1
62458;BME280;48509;52.122;5.250;2023-05-16T10:59:57;102170.0;;;15.07;55.08
62458;BME280;48509;52.122;5.250;2023-05-16T11:01:34;102169.0;;;15.24;56.83
62458;BME280;48509;52.122;5.250;2023-05-16T11:03:21;102173.0;;;15.28;57.34
62458;BME280;48509;52.122;5.250;2023-05-16T11:06:48;102171.0;;;15.5;55.97
62458;BME280;48509;52.122;5.250;2023-05-16T11:08:28;102174.0;;;15.45;54.88
62458;BME280;48509;52.122;5.250;2023-05-16T11:10:06;102173.0;;;15.56;54.54
62458;BME280;48509;52.122;5.250;2023-05-16T11:11:45;102182.0;;;15.69;54.92
62458;BME280;48509;52.122;5.250;2023-05-16T11:14:59;102174.0;;;15.69;55.99